Terminal Aerodrome Forecast
Issued by NWS

Home | Current Version | Previous Version | Text Only | Print | Product List | Glossary On
Versions: 1 2 3 4 5 6 7 8 9 10 11 12 13 14 15 16 17 18 19 20 21 22 23 24 25 26 27 28 29 30 31 32 33 34 35 36 37 38
736
FTUS41 KBOX 212341 AAA
TAFBED
TAF AMD
KBED 212341Z 2200/2224 28006KT P6SM OVC035
     FM220300 VRB03KT P6SM SCT008 OVC035
     FM220900 00000KT P6SM OVC110
     FM221300 00000KT 5SM BR BKN070
     FM221500 VRB03KT 5SM BR OVC015
     FM221600 03004KT 4SM BR OVC025
     FM221700 04005KT P6SM OVC025
     FM221900 05006KT P6SM VCSH OVC010=

USA.gov is the U.S. government's official web portal to all federal, state and local government web resources and services.